Time;durP1;ratioP1;P1;durP2;ratioP2;P2;SDS_P1;SDS_P2;PMS_P1;PMS_P2;Temp;Humidity;BMP_temperature;BMP_pressure;BME280_temperature;BME280_humidity;BME280_pressure;Samples;Min_cycle;Max_cycle;Signal;HPM_P1;HPM_P2
2023/08/30 00:01:51;;;;;;;4.45;4.05;;;;;;;;;;5282911;28;20027;-75
2023/08/30 00:04:22;;;;;;;5.82;3.95;;;;;;;;;;5284300;28;20055;-75
2023/08/30 00:06:53;;;;;;;5.45;4.07;;;;;;;;;;5283275;28;20040;-75
2023/08/30 00:09:25;;;;;;;5.03;4.57;;;;;;;;;;5283161;28;20013;-75
2023/08/30 00:11:56;;;;;;;5.10;4.30;;;;;;;;;;5283735;28;20310;-75
2023/08/30 00:14:27;;;;;;;4.47;3.85;;;;;;;;;;5283126;28;20012;-75
2023/08/30 00:16:58;;;;;;;6.25;4.65;;;;;;;;;;5283311;28;20017;-75
2023/08/30 00:19:30;;;;;;;4.40;4.00;;;;;;;;;;5283211;28;20020;-75
2023/08/30 00:22:01;;;;;;;5.50;4.68;;;;;;;;;;5283469;28;20016;-75
2023/08/30 00:24:33;;;;;;;4.75;4.35;;;;;;;;;;5282990;28;20494;-75
2023/08/30 00:27:04;;;;;;;4.30;3.75;;;;;;;;;;5283923;28;20013;-74
2023/08/30 00:29:35;;;;;;;4.38;3.97;;;;;;;;;;5282368;28;20021;-75
2023/08/30 00:32:07;;;;;;;6.65;4.60;;;;;;;;;;5283079;28;20032;-74
2023/08/30 00:34:38;;;;;;;5.53;4.65;;;;;;;;;;5283118;28;20494;-75
2023/08/30 00:37:10;;;;;;;4.78;4.22;;;;;;;;;;5282794;28;20032;-74
2023/08/30 00:39:41;;;;;;;5.95;4.50;;;;;;;;;;5282595;28;20048;-75
2023/08/30 00:42:12;;;;;;;4.45;4.05;;;;;;;;;;5283315;28;20535;-75
2023/08/30 00:44:43;;;;;;;6.60;4.53;;;;;;;;;;5281811;28;20044;-75
2023/08/30 00:47:15;;;;;;;4.88;4.15;;;;;;;;;;5283327;28;20028;-74
2023/08/30 00:49:46;;;;;;;4.50;4.10;;;;;;;;;;5282044;28;20070;-75
2023/08/30 00:52:18;;;;;;;4.88;4.40;;;;;;;;;;5282840;28;20040;-75
2023/08/30 00:54:49;;;;;;;4.45;4.03;;;;;;;;;;5282345;28;20047;-75
2023/08/30 00:57:20;;;;;;;4.20;3.80;;;;;;;;;;5282734;28;20082;-74
2023/08/30 00:59:53;;;;;;;4.65;4.13;;;;;;;;;;5282243;28;20035;-75
2023/08/30 01:02:24;;;;;;;4.85;4.32;;;;;;;;;;5282717;28;20074;-75
2023/08/30 01:04:55;;;;;;;5.18;4.10;;;;;;;;;;5281774;28;20089;-75
2023/08/30 01:07:27;;;;;;;4.32;3.92;;;;;;;;;;5281772;28;20123;-74
2023/08/30 01:09:58;;;;;;;6.68;4.70;;;;;;;;;;5282295;28;20020;-74
2023/08/30 01:12:36;;;;;;;4.80;4.28;;;;;;;;;;5281386;28;20542;-75
2023/08/30 01:15:15;;;;;;;4.32;3.78;;;;;;;;;;5282930;28;20023;-74
2023/08/30 01:17:46;;;;;;;;;;;;;;;;;;5281961;28;20027;-75
2023/08/30 01:20:20;;;;;;;3.80;3.40;;;;;;;;;;5282639;28;19991;-74
2023/08/30 01:23:00;;;;;;;4.32;3.92;;;;;;;;;;5282118;28;20039;-75
2023/08/30 01:25:37;;;;;;;4.35;3.90;;;;;;;;;;5281418;28;20028;-75
2023/08/30 01:28:08;;;;;;;6.18;4.15;;;;;;;;;;5282315;28;20370;-74
2023/08/30 01:30:41;;;;;;;5.88;4.20;;;;;;;;;;5281677;28;20028;-75
2023/08/30 01:33:14;;;;;;;5.18;3.85;;;;;;;;;;5281798;28;20543;-74
2023/08/30 01:35:45;;;;;;;5.18;4.32;;;;;;;;;;5281716;28;20020;-75
2023/08/30 01:38:17;;;;;;;5.75;4.35;;;;;;;;;;5282244;28;20021;-74
2023/08/30 01:40:48;;;;;;;4.72;4.28;;;;;;;;;;5280840;28;20348;-74
2023/08/30 01:43:21;;;;;;;6.72;4.22;;;;;;;;;;5282244;28;20052;-75
2023/08/30 01:45:52;;;;;;;4.35;3.95;;;;;;;;;;5281064;28;20103;-74
2023/08/30 01:48:24;;;;;;;6.22;4.05;;;;;;;;;;5281762;28;20559;-75
2023/08/30 01:50:58;;;;;;;4.78;3.97;;;;;;;;;;5281857;28;20059;-75
2023/08/30 01:53:30;;;;;;;4.85;3.53;;;;;;;;;;5280982;28;20062;-75
2023/08/30 01:56:02;;;;;;;6.90;3.47;;;;;;;;;;5282014;28;20422;-74
2023/08/30 01:58:33;;;;;;;5.60;4.20;;;;;;;;;;5281621;28;20078;-75
2023/08/30 02:01:04;;;;;;;4.82;3.97;;;;;;;;;;5281173;28;20032;-75
2023/08/30 02:03:35;;;;;;;4.88;3.95;;;;;;;;;;5281276;28;20012;-75
2023/08/30 02:06:13;;;;;;;4.25;3.85;;;;;;;;;;5281682;28;20136;-75
2023/08/30 02:08:52;;;;;;;3.95;3.33;;;;;;;;;;5280779;28;20433;-75
2023/08/30 02:11:27;;;;;;;4.35;3.95;;;;;;;;;;5281716;28;20108;-75
2023/08/30 02:13:58;;;;;;;8.18;4.07;;;;;;;;;;5281017;28;20024;-75
2023/08/30 02:16:31;;;;;;;5.47;3.65;;;;;;;;;;5281405;28;20070;-75
2023/08/30 02:19:02;;;;;;;5.43;3.80;;;;;;;;;;5284329;28;20021;-74
2023/08/30 02:21:34;;;;;;;5.68;3.90;;;;;;;;;;5284881;28;20097;-74
2023/08/30 02:24:05;;;;;;;5.30;3.95;;;;;;;;;;5285896;28;20020;-74
2023/08/30 02:26:36;;;;;;;8.00;4.43;;;;;;;;;;5285343;28;20047;-74
2023/08/30 02:29:08;;;;;;;4.80;4.28;;;;;;;;;;5285116;28;20039;-75
2023/08/30 02:31:39;;;;;;;6.00;4.82;;;;;;;;;;5285444;28;20475;-74
2023/08/30 02:34:10;;;;;;;8.32;5.05;;;;;;;;;;5286026;28;20107;-75
2023/08/30 02:36:41;;;;;;;5.45;4.13;;;;;;;;;;5284345;28;20112;-75
2023/08/30 02:39:14;;;;;;;5.07;4.45;;;;;;;;;;5285745;28;20375;-75
2023/08/30 02:41:45;;;;;;;4.72;4.32;;;;;;;;;;5285260;28;20048;-75
2023/08/30 02:44:16;;;;;;;5.53;4.72;;;;;;;;;;5284996;28;20044;-75
2023/08/30 02:46:47;;;;;;;6.07;4.75;;;;;;;;;;5284930;28;20020;-75
2023/08/30 02:49:18;;;;;;;7.85;4.70;;;;;;;;;;5285018;28;20492;-75
2023/08/30 02:51:50;;;;;;;8.15;4.50;;;;;;;;;;5284517;28;20090;-75
2023/08/30 02:54:22;;;;;;;6.05;4.90;;;;;;;;;;5285382;28;20013;-75
2023/08/30 02:56:53;;;;;;;6.43;5.35;;;;;;;;;;5284253;28;20036;-75
2023/08/30 02:59:24;;;;;;;7.00;4.88;;;;;;;;;;5284972;28;20348;-75
2023/08/30 03:01:56;;;;;;;6.60;5.20;;;;;;;;;;5284972;28;20024;-74
2023/08/30 03:04:27;;;;;;;6.72;5.15;;;;;;;;;;5284404;28;20021;-75
2023/08/30 03:06:58;;;;;;;5.63;5.05;;;;;;;;;;5284763;28;20407;-75
2023/08/30 03:09:29;;;;;;;5.93;5.30;;;;;;;;;;5284813;28;20418;-75
2023/08/30 03:12:00;;;;;;;8.35;5.88;;;;;;;;;;5284214;28;20040;-75
2023/08/30 03:14:31;;;;;;;8.15;5.45;;;;;;;;;;5284311;28;20021;-75
2023/08/30 03:17:03;;;;;;;7.18;5.68;;;;;;;;;;5285271;28;20395;-74
2023/08/30 03:19:34;;;;;;;7.25;5.72;;;;;;;;;;5283716;28;20040;-75
2023/08/30 03:22:05;;;;;;;7.00;5.35;;;;;;;;;;5285135;28;20020;-75
2023/08/30 03:24:36;;;;;;;6.95;5.55;;;;;;;;;;5283750;28;20028;-75
2023/08/30 03:27:08;;;;;;;6.25;5.65;;;;;;;;;;5284591;28;20016;-75
2023/08/30 03:29:39;;;;;;;6.03;5.30;;;;;;;;;;5283741;28;20025;-75
2023/08/30 03:32:10;;;;;;;6.65;5.55;;;;;;;;;;5283858;28;20028;-75
2023/08/30 03:34:44;;;;;;;7.70;4.70;;;;;;;;;;5284133;28;20379;-75
2023/08/30 03:37:15;;;;;;;6.90;5.13;;;;;;;;;;5284592;28;20032;-75
2023/08/30 03:39:46;;;;;;;5.18;4.45;;;;;;;;;;5283207;28;20459;-75
2023/08/30 03:42:17;;;;;;;6.40;5.30;;;;;;;;;;5284779;28;20016;-75
2023/08/30 03:44:49;;;;;;;7.78;5.30;;;;;;;;;;5283948;28;20031;-75
2023/08/30 03:47:20;;;;;;;5.68;4.88;;;;;;;;;;5283751;28;20076;-75
2023/08/30 03:49:51;;;;;;;7.10;5.40;;;;;;;;;;5283826;28;20105;-75
2023/08/30 03:52:22;;;;;;;8.33;5.60;;;;;;;;;;5284498;28;20032;-75
2023/08/30 03:54:53;;;;;;;6.82;5.85;;;;;;;;;;5283694;28;20270;-75
2023/08/30 03:57:25;;;;;;;6.03;5.43;;;;;;;;;;5284206;28;20016;-74
2023/08/30 03:59:56;;;;;;;8.07;6.60;;;;;;;;;;5283449;28;20107;-75
2023/08/30 04:02:27;;;;;;;6.32;5.72;;;;;;;;;;5283522;28;20031;-75
2023/08/30 04:04:58;;;;;;;8.35;7.15;;;;;;;;;;5284204;28;20490;-75
2023/08/30 04:07:29;;;;;;;7.78;6.60;;;;;;;;;;5282832;28;20080;-75
2023/08/30 04:10:02;;;;;;;8.82;6.65;;;;;;;;;;5284190;28;20027;-76
2023/08/30 04:12:34;;;;;;;7.82;6.57;;;;;;;;;;5283657;28;20028;-75
2023/08/30 04:15:05;;;;;;;8.40;7.07;;;;;;;;;;5283509;28;20009;-75
2023/08/30 04:17:37;;;;;;;6.82;6.03;;;;;;;;;;5283644;28;20029;-75
2023/08/30 04:20:10;;;;;;;9.02;6.72;;;;;;;;;;5284053;28;20112;-74
2023/08/30 04:22:41;;;;;;;7.95;7.00;;;;;;;;;;5282451;28;20075;-74
2023/08/30 04:25:12;;;;;;;8.90;6.10;;;;;;;;;;5283903;28;20024;-75
2023/08/30 04:27:44;;;;;;;6.70;6.10;;;;;;;;;;5282695;28;20116;-74
2023/08/30 04:30:15;;;;;;;7.38;6.68;;;;;;;;;;5283766;28;20017;-75
2023/08/30 04:32:46;;;;;;;7.82;6.15;;;;;;;;;;5283248;28;20031;-74
2023/08/30 04:35:18;;;;;;;11.82;6.10;;;;;;;;;;5283137;28;20024;-75
2023/08/30 04:37:49;;;;;;;7.32;6.63;;;;;;;;;;5283174;28;20024;-75
2023/08/30 04:40:20;;;;;;;7.32;6.20;;;;;;;;;;5283376;28;20471;-75
2023/08/30 04:42:51;;;;;;;8.15;7.10;;;;;;;;;;5282223;28;20013;-74
2023/08/30 04:45:23;;;;;;;7.85;6.18;;;;;;;;;;5283695;28;20020;-74
2023/08/30 04:47:54;;;;;;;7.00;6.20;;;;;;;;;;5283262;28;20467;-75
2023/08/30 04:50:26;;;;;;;8.70;6.18;;;;;;;;;;5282009;28;20029;-75
2023/08/30 04:52:57;;;;;;;7.55;6.15;;;;;;;;;;5282843;28;20100;-76
2023/08/30 04:55:28;;;;;;;6.70;5.97;;;;;;;;;;5282777;28;20482;-75
2023/08/30 04:57:59;;;;;;;6.50;5.40;;;;;;;;;;5281901;28;20027;-75
2023/08/30 05:00:31;;;;;;;7.25;5.53;;;;;;;;;;5282695;28;20023;-75
2023/08/30 05:03:02;;;;;;;8.60;6.50;;;;;;;;;;5282391;28;20032;-75
2023/08/30 05:05:34;;;;;;;8.38;6.20;;;;;;;;;;5282239;28;20024;-75
2023/08/30 05:08:07;;;;;;;6.65;6.05;;;;;;;;;;5282664;28;20044;-75
2023/08/30 05:10:40;;;;;;;6.80;5.65;;;;;;;;;;5281405;28;20028;-75
2023/08/30 05:13:11;;;;;;;5.85;5.32;;;;;;;;;;5282658;28;20021;-74
2023/08/30 05:15:42;;;;;;;7.22;5.38;;;;;;;;;;5282101;28;20302;-74
2023/08/30 05:18:13;;;;;;;6.75;5.82;;;;;;;;;;5282015;28;20024;-74
2023/08/30 05:20:44;;;;;;;8.43;6.20;;;;;;;;;;5282193;28;20384;-74
2023/08/30 05:23:16;;;;;;;7.38;5.75;;;;;;;;;;5282766;28;20027;-74
2023/08/30 05:25:47;;;;;;;5.90;5.30;;;;;;;;;;5280977;28;20024;-74
2023/08/30 05:28:19;;;;;;;9.20;5.95;;;;;;;;;;5282562;28;20020;-75
2023/08/30 05:30:50;;;;;;;8.00;5.32;;;;;;;;;;5281682;28;20073;-75
2023/08/30 05:33:21;;;;;;;8.10;5.72;;;;;;;;;;5281742;28;20475;-75
2023/08/30 05:35:52;;;;;;;6.97;5.28;;;;;;;;;;5281933;28;20149;-75
2023/08/30 05:38:23;;;;;;;5.55;5.05;;;;;;;;;;5281276;28;20099;-75
2023/08/30 05:40:55;;;;;;;6.85;5.90;;;;;;;;;;5282207;28;20375;-75
2023/08/30 05:43:26;;;;;;;7.70;5.50;;;;;;;;;;5281755;28;20020;-75
2023/08/30 05:46:01;;;;;;;7.93;6.07;;;;;;;;;;5280918;28;20036;-75
2023/08/30 05:48:33;;;;;;;6.70;5.68;;;;;;;;;;5281226;28;20028;-75
2023/08/30 05:51:04;;;;;;;6.90;6.22;;;;;;;;;;5282167;28;20032;-75
2023/08/30 05:53:35;;;;;;;8.13;6.07;;;;;;;;;;5280269;28;20009;-75
2023/08/30 05:56:07;;;;;;;11.95;5.90;;;;;;;;;;5281835;28;20131;-75
2023/08/30 05:58:38;;;;;;;8.18;6.43;;;;;;;;;;5281405;28;20479;-75
2023/08/30 06:01:09;;;;;;;6.78;5.50;;;;;;;;;;5281555;28;20024;-76
2023/08/30 06:03:40;;;;;;;7.32;6.68;;;;;;;;;;5281471;28;20078;-75
2023/08/30 06:06:11;;;;;;;6.85;5.75;;;;;;;;;;5281086;28;20053;-75
2023/08/30 06:08:43;;;;;;;7.18;6.47;;;;;;;;;;5280917;28;20391;-75
2023/08/30 06:11:15;;;;;;;6.65;5.95;;;;;;;;;;5281679;28;20497;-76
2023/08/30 06:13:46;;;;;;;11.60;5.50;;;;;;;;;;5280416;28;20040;-74
2023/08/30 06:16:17;;;;;;;7.25;5.90;;;;;;;;;;5281958;28;20025;-74
2023/08/30 06:18:49;;;;;;;8.27;5.13;;;;;;;;;;5281337;28;20021;-75
2023/08/30 06:21:20;;;;;;;6.72;5.85;;;;;;;;;;5281029;28;20450;-74
2023/08/30 06:23:51;;;;;;;8.68;5.72;;;;;;;;;;5281093;28;20017;-75
2023/08/30 06:26:23;;;;;;;6.32;5.07;;;;;;;;;;5281602;28;20025;-75
2023/08/30 06:28:54;;;;;;;6.82;5.32;;;;;;;;;;5280590;28;20029;-76
2023/08/30 06:31:26;;;;;;;7.72;5.50;;;;;;;;;;5281265;28;20382;-76
2023/08/30 06:33:57;;;;;;;7.40;5.72;;;;;;;;;;5281386;28;20020;-76
2023/08/30 06:36:28;;;;;;;6.43;5.45;;;;;;;;;;5280433;28;20032;-75
2023/08/30 06:38:59;;;;;;;5.95;5.45;;;;;;;;;;5281408;28;20433;-75
2023/08/30 06:41:31;;;;;;;5.75;5.20;;;;;;;;;;5280628;28;20028;-76
2023/08/30 06:44:03;;;;;;;7.05;5.38;;;;;;;;;;5281276;28;20031;-76
2023/08/30 06:46:34;;;;;;;6.13;5.38;;;;;;;;;;5280787;28;20082;-77
2023/08/30 06:49:05;;;;;;;6.18;4.85;;;;;;;;;;5280583;28;20411;-75
2023/08/30 06:51:37;;;;;;;5.82;5.30;;;;;;;;;;5280673;28;20036;-76
2023/08/30 06:54:08;;;;;;;6.38;5.70;;;;;;;;;;5280985;28;20074;-74
2023/08/30 06:56:39;;;;;;;7.25;5.43;;;;;;;;;;5280407;28;20092;-75
2023/08/30 06:59:10;;;;;;;7.50;5.57;;;;;;;;;;5281272;28;20025;-73
2023/08/30 07:01:41;;;;;;;6.38;5.78;;;;;;;;;;5280751;28;20498;-76
2023/08/30 07:04:13;;;;;;;7.10;6.38;;;;;;;;;;5281376;28;20025;-77
2023/08/30 07:06:44;;;;;;;7.18;5.65;;;;;;;;;;5284546;28;20564;-77
2023/08/30 07:09:16;;;;;;;8.85;6.13;;;;;;;;;;5285065;28;20036;-78
2023/08/30 07:11:47;;;;;;;8.02;5.85;;;;;;;;;;5283549;28;20033;-77
2023/08/30 07:14:20;;;;;;;7.55;6.50;;;;;;;;;;5284858;28;20012;-77
2023/08/30 07:16:51;;;;;;;6.00;5.50;;;;;;;;;;5283518;28;20032;-76
2023/08/30 07:19:22;;;;;;;6.13;5.45;;;;;;;;;;5284699;28;20017;-77
2023/08/30 07:21:54;;;;;;;9.80;5.95;;;;;;;;;;5283920;28;20043;-76
2023/08/30 07:24:25;;;;;;;7.18;5.72;;;;;;;;;;5283523;28;20375;-76
2023/08/30 07:26:56;;;;;;;6.45;5.53;;;;;;;;;;5284150;28;20028;-76
2023/08/30 07:29:27;;;;;;;5.20;4.63;;;;;;;;;;5284294;28;20471;-76
2023/08/30 07:31:58;;;;;;;5.43;4.32;;;;;;;;;;5283229;28;20024;-75
2023/08/30 07:34:30;;;;;;;4.85;4.32;;;;;;;;;;5283859;28;20459;-76
2023/08/30 07:37:01;;;;;;;4.60;3.72;;;;;;;;;;5284301;28;20479;-76
2023/08/30 07:39:34;;;;;;;8.05;4.50;;;;;;;;;;5283155;28;20020;-76
2023/08/30 07:42:05;;;;;;;4.70;4.20;;;;;;;;;;5284531;28;20021;-77
2023/08/30 07:44:36;;;;;;;4.28;3.50;;;;;;;;;;5283332;28;20017;-79
2023/08/30 07:47:08;;;;;;;3.53;3.22;;;;;;;;;;5283995;28;20035;-77
2023/08/30 07:49:39;;;;;;;5.47;3.40;;;;;;;;;;5283489;28;20020;-77
2023/08/30 07:52:10;;;;;;;3.70;3.40;;;;;;;;;;5283348;28;20028;-77
2023/08/30 07:54:42;;;;;;;3.85;3.50;;;;;;;;;;5279249;28;20336;-75
2023/08/30 07:57:13;;;;;;;4.00;3.53;;;;;;;;;;5283754;28;20024;-78
2023/08/30 07:59:44;;;;;;;4.63;3.57;;;;;;;;;;5282502;28;20459;-76
2023/08/30 08:02:15;;;;;;;4.18;3.10;;;;;;;;;;5283848;28;20379;-76
2023/08/30 08:04:47;;;;;;;3.65;2.50;;;;;;;;;;5283183;28;20013;-75
2023/08/30 08:07:18;;;;;;;3.08;2.42;;;;;;;;;;5281934;28;20127;-76
2023/08/30 08:09:49;;;;;;;4.30;2.72;;;;;;;;;;5281982;28;20554;-75
2023/08/30 08:12:20;;;;;;;5.07;3.20;;;;;;;;;;5283433;28;20028;-77
2023/08/30 08:14:51;;;;;;;6.10;3.95;;;;;;;;;;5282601;28;20031;-77
2023/08/30 08:17:23;;;;;;;4.85;2.88;;;;;;;;;;5283858;28;20028;-76
2023/08/30 08:19:54;;;;;;;6.03;3.17;;;;;;;;;;5282211;28;20024;-75
2023/08/30 08:22:25;;;;;;;2.50;2.10;;;;;;;;;;5283370;28;20051;-79
2023/08/30 08:24:57;;;;;;;4.22;2.35;;;;;;;;;;5282973;28;20016;-79
2023/08/30 08:27:28;;;;;;;3.20;2.90;;;;;;;;;;5282679;28;20452;-79
2023/08/30 08:29:59;;;;;;;4.40;3.10;;;;;;;;;;5283204;28;20025;-80
2023/08/30 08:32:31;;;;;;;3.45;2.60;;;;;;;;;;5282820;28;20433;-78
2023/08/30 08:35:02;;;;;;;3.85;2.10;;;;;;;;;;5282595;28;20040;-77
2023/08/30 08:37:34;;;;;;;4.15;2.03;;;;;;;;;;5282571;28;20031;-78
2023/08/30 08:40:08;;;;;;;3.08;1.80;;;;;;;;;;5283257;28;20082;-80
2023/08/30 08:42:39;;;;;;;2.97;1.60;;;;;;;;;;5281588;28;20024;-77
2023/08/30 08:45:15;;;;;;;2.72;1.45;;;;;;;;;;5283101;28;20375;-77
2023/08/30 08:47:47;;;;;;;2.78;1.80;;;;;;;;;;5282223;28;20031;-78
2023/08/30 08:50:18;;;;;;;3.13;1.52;;;;;;;;;;5282566;28;20012;-77
2023/08/30 08:52:51;;;;;;;2.90;1.60;;;;;;;;;;5282483;28;20525;-78
2023/08/30 08:55:22;;;;;;;2.70;1.40;;;;;;;;;;5282353;28;20024;-77
2023/08/30 08:57:54;;;;;;;2.75;1.70;;;;;;;;;;5282223;28;20043;-78
2023/08/30 09:00:25;;;;;;;2.67;1.40;;;;;;;;;;5282369;28;20442;-78
2023/08/30 09:02:57;;;;;;;2.63;1.30;;;;;;;;;;5282253;28;20107;-79
2023/08/30 09:05:29;;;;;;;2.40;1.30;;;;;;;;;;5282682;28;20021;-78
2023/08/30 09:08:02;;;;;;;2.00;1.42;;;;;;;;;;5282553;28;20084;-78
2023/08/30 09:10:33;;;;;;;2.60;1.15;;;;;;;;;;5281288;28;20055;-75
2023/08/30 09:13:04;;;;;;;2.10;1.48;;;;;;;;;;5282712;28;20040;-76
2023/08/30 09:15:37;;;;;;;2.50;1.52;;;;;;;;;;5281938;28;20041;-76
2023/08/30 09:18:17;;;;;;;1.90;1.02;;;;;;;;;;5281872;28;20023;-79
2023/08/30 09:20:48;;;;;;;3.10;1.08;;;;;;;;;;5281919;28;20036;-77
2023/08/30 09:23:20;;;;;;;3.17;1.25;;;;;;;;;;5281373;28;20519;-77
2023/08/30 09:25:55;;;;;;;2.80;1.10;;;;;;;;;;5281371;28;20026;-77
2023/08/30 09:28:26;;;;;;;2.10;1.48;;;;;;;;;;5281246;28;20013;-77
2023/08/30 09:31:00;;;;;;;2.67;1.45;;;;;;;;;;5280726;28;20035;-77
2023/08/30 09:33:32;;;;;;;2.60;1.48;;;;;;;;;;5281448;28;20024;-79
2023/08/30 09:36:09;;;;;;;2.35;1.50;;;;;;;;;;5281791;28;20016;-79
2023/08/30 09:38:40;;;;;;;1.90;1.30;;;;;;;;;;5280110;28;20029;-76
2023/08/30 09:41:12;;;;;;;2.45;1.48;;;;;;;;;;5281829;28;20078;-74
2023/08/30 09:43:43;;;;;;;2.67;1.33;;;;;;;;;;5281541;28;20017;-79
2023/08/30 09:46:15;;;;;;;2.88;1.55;;;;;;;;;;5281161;28;20100;-78
2023/08/30 09:48:46;;;;;;;2.20;1.48;;;;;;;;;;5281414;28;20107;-76
2023/08/30 09:51:20;;;;;;;2.17;1.70;;;;;;;;;;5280446;28;20032;-76
2023/08/30 09:53:54;;;;;;;2.65;1.58;;;;;;;;;;5280976;28;20023;-76
2023/08/30 09:56:25;;;;;;;1.70;1.30;;;;;;;;;;5281487;28;20105;-77
2023/08/30 09:58:59;;;;;;;3.63;1.30;;;;;;;;;;5281017;28;20013;-77
2023/08/30 10:01:30;;;;;;;1.90;1.50;;;;;;;;;;5281537;28;20077;-77
2023/08/30 10:04:03;;;;;;;1.70;1.20;;;;;;;;;;5281761;28;20025;-76
2023/08/30 10:06:35;;;;;;;1.50;1.00;;;;;;;;;;5280595;28;20558;-77
2023/08/30 10:09:10;;;;;;;2.35;1.50;;;;;;;;;;5281898;28;20116;-76
2023/08/30 10:11:41;;;;;;;2.80;1.63;;;;;;;;;;5281149;28;20082;-76
2023/08/30 10:14:13;;;;;;;2.30;1.40;;;;;;;;;;5281347;28;20012;-76
2023/08/30 10:16:45;;;;;;;3.28;2.13;;;;;;;;;;5281393;28;20071;-76
2023/08/30 10:19:17;;;;;;;2.33;2.13;;;;;;;;;;5280964;28;20448;-76
2023/08/30 10:21:51;;;;;;;1.80;1.55;;;;;;;;;;5281043;28;20060;-76
2023/08/30 10:24:24;;;;;;;2.28;1.88;;;;;;;;;;5281496;28;20020;-76
2023/08/30 10:26:56;;;;;;;2.65;2.22;;;;;;;;;;5280690;28;20508;-77
2023/08/30 10:29:28;;;;;;;2.53;2.33;;;;;;;;;;5281640;28;20021;-77
2023/08/30 10:32:03;;;;;;;2.28;1.90;;;;;;;;;;5281337;28;20093;-77
2023/08/30 10:34:36;;;;;;;2.40;2.20;;;;;;;;;;5280718;28;20017;-75
2023/08/30 10:37:08;;;;;;;2.75;2.03;;;;;;;;;;5281546;28;20013;-76
2023/08/30 10:39:40;;;;;;;2.30;1.40;;;;;;;;;;5282549;28;20371;-77
2023/08/30 10:42:12;;;;;;;3.13;2.20;;;;;;;;;;5284955;28;20012;-75
2023/08/30 10:44:56;;;;;;;2.72;1.90;;;;;;;;;;5284949;28;20025;-76
2023/08/30 10:47:29;;;;;;;2.35;1.90;;;;;;;;;;5284491;28;20020;-76
2023/08/30 10:50:00;;;;;;;1.80;1.20;;;;;;;;;;5285285;28;20020;-76
2023/08/30 10:52:32;;;;;;;4.13;1.30;;;;;;;;;;5284876;28;20043;-76
2023/08/30 10:55:07;;;;;;;2.60;1.67;;;;;;;;;;5284693;28;20021;-75
2023/08/30 10:57:43;;;;;;;2.53;1.20;;;;;;;;;;5284894;28;20086;-76
2023/08/30 11:00:15;;;;;;;1.98;1.08;;;;;;;;;;5285640;28;20024;-76
2023/08/30 11:02:48;;;;;;;2.60;1.20;;;;;;;;;;5284236;28;20021;-75
2023/08/30 11:05:21;;;;;;;1.85;1.05;;;;;;;;;;5285352;28;20048;-76
2023/08/30 11:07:52;;;;;;;1.60;0.90;;;;;;;;;;5284230;28;20079;-74
2023/08/30 11:10:23;;;;;;;1.67;1.10;;;;;;;;;;5284190;28;20071;-76
2023/08/30 11:12:55;;;;;;;1.45;0.70;;;;;;;;;;5284765;28;20065;-76
2023/08/30 11:15:26;;;;;;;2.20;1.02;;;;;;;;;;5284901;28;20019;-76
2023/08/30 11:18:05;;;;;;;2.00;0.90;;;;;;;;;;5284196;28;20052;-76
2023/08/30 11:20:36;;;;;;;3.13;0.90;;;;;;;;;;5284730;28;20613;-76
2023/08/30 11:23:07;;;;;;;1.83;0.80;;;;;;;;;;5284055;28;20017;-75
2023/08/30 11:25:39;;;;;;;2.22;1.00;;;;;;;;;;5284347;28;20081;-76
2023/08/30 11:28:10;;;;;;;4.40;0.90;;;;;;;;;;5284815;28;20031;-76
2023/08/30 11:30:41;;;;;;;2.20;0.75;;;;;;;;;;5283611;28;20401;-76
2023/08/30 11:33:12;;;;;;;5.10;0.88;;;;;;;;;;5284527;28;20063;-76
2023/08/30 11:35:44;;;;;;;2.78;0.70;;;;;;;;;;5283811;28;20178;-76
2023/08/30 11:38:15;;;;;;;3.47;0.90;;;;;;;;;;5283911;28;20044;-76
2023/08/30 11:40:48;;;;;;;3.63;1.08;;;;;;;;;;5283908;28;20024;-77
2023/08/30 11:43:19;;;;;;;2.90;0.77;;;;;;;;;;5284171;28;20020;-77
2023/08/30 11:45:55;;;;;;;3.63;0.60;;;;;;;;;;5283251;28;20383;-76
2023/08/30 11:48:26;;;;;;;3.65;0.75;;;;;;;;;;5283908;28;20467;-77
2023/08/30 11:50:58;;;;;;;3.45;0.77;;;;;;;;;;5282672;28;20031;-77
2023/08/30 11:53:30;;;;;;;2.67;0.60;;;;;;;;;;5279055;28;20071;-78
2023/08/30 11:56:01;;;;;;;4.55;0.70;;;;;;;;;;5284140;28;20056;-78
2023/08/30 11:58:33;;;;;;;4.03;0.55;;;;;;;;;;5282952;28;20422;-78
2023/08/30 12:01:05;;;;;;;3.70;1.02;;;;;;;;;;5282509;28;20020;-79
2023/08/30 12:03:36;;;;;;;6.22;0.80;;;;;;;;;;5283121;28;20019;-80
2023/08/30 12:06:12;;;;;;;5.10;0.90;;;;;;;;;;5283310;28;20083;-79
2023/08/30 12:08:43;;;;;;;3.00;0.50;;;;;;;;;;5268020;28;20024;-77
2023/08/30 12:11:20;;;;;;;3.42;0.60;;;;;;;;;;5269658;28;20302;-77
2023/08/30 12:13:51;;;;;;;2.65;0.70;;;;;;;;;;5268418;28;20534;-77
2023/08/30 12:16:24;;;;;;;5.78;0.70;;;;;;;;;;5281854;28;20072;-77
2023/08/30 12:18:55;;;;;;;3.88;0.75;;;;;;;;;;5280920;28;20028;-77
2023/08/30 12:21:28;;;;;;;3.63;0.60;;;;;;;;;;5282581;28;20012;-78
2023/08/30 12:24:00;;;;;;;4.30;0.80;;;;;;;;;;5283316;28;20065;-78
2023/08/30 12:26:38;;;;;;;3.78;0.60;;;;;;;;;;5282563;28;20344;-75
2023/08/30 12:29:09;;;;;;;4.85;0.70;;;;;;;;;;5283237;28;20075;-76
2023/08/30 12:31:40;;;;;;;5.47;1.63;;;;;;;;;;5280612;28;20060;-77
2023/08/30 12:34:11;;;;;;;6.23;0.80;;;;;;;;;;5282964;28;20017;-77
2023/08/30 12:36:42;;;;;;;4.30;0.70;;;;;;;;;;5282644;28;20301;-78
2023/08/30 12:39:13;;;;;;;4.67;0.63;;;;;;;;;;5283431;28;20320;-77
2023/08/30 12:41:45;;;;;;;4.93;0.70;;;;;;;;;;5282181;28;20753;-78
2023/08/30 12:44:16;;;;;;;4.37;0.60;;;;;;;;;;5283521;28;20302;-78
2023/08/30 12:46:47;;;;;;;3.43;0.70;;;;;;;;;;5282837;28;20335;-78
2023/08/30 12:49:18;;;;;;;3.20;0.65;;;;;;;;;;5280962;28;20259;-78
2023/08/30 12:51:49;;;;;;;3.43;0.60;;;;;;;;;;5280355;28;20032;-79
2023/08/30 12:54:21;;;;;;;2.50;0.60;;;;;;;;;;5280494;28;20357;-79
2023/08/30 12:56:52;;;;;;;4.07;0.60;;;;;;;;;;5280754;28;20267;-78
2023/08/30 12:59:24;;;;;;;4.55;0.63;;;;;;;;;;5281007;28;20104;-76
2023/08/30 13:01:55;;;;;;;2.33;0.50;;;;;;;;;;5280338;28;20712;-78
2023/08/30 13:04:26;;;;;;;3.97;0.70;;;;;;;;;;5282458;28;20061;-78
2023/08/30 13:06:57;;;;;;;4.10;0.70;;;;;;;;;;5282326;28;20287;-79
2023/08/30 13:09:28;;;;;;;2.72;0.60;;;;;;;;;;5281830;28;20262;-78
2023/08/30 13:12:00;;;;;;;4.83;0.70;;;;;;;;;;5282422;28;20090;-77
2023/08/30 13:14:31;;;;;;;4.30;0.70;;;;;;;;;;5282126;28;20263;-79
2023/08/30 13:17:02;;;;;;;4.47;0.60;;;;;;;;;;5282215;28;20274;-77
2023/08/30 13:19:34;;;;;;;3.90;0.60;;;;;;;;;;5281930;28;20020;-77
2023/08/30 13:22:05;;;;;;;3.55;0.57;;;;;;;;;;5282438;28;20554;-77
2023/08/30 13:24:36;;;;;;;3.05;0.50;;;;;;;;;;5281483;28;20024;-77
2023/08/30 13:27:07;;;;;;;3.75;0.60;;;;;;;;;;5282511;28;20020;-77
2023/08/30 13:29:38;;;;;;;3.20;0.57;;;;;;;;;;5281295;28;20017;-77
2023/08/30 13:32:10;;;;;;;3.17;0.50;;;;;;;;;;5282556;28;20111;-78
2023/08/30 13:34:45;;;;;;;3.57;0.70;;;;;;;;;;5281768;28;20271;-77
2023/08/30 13:37:17;;;;;;;4.53;0.60;;;;;;;;;;5281581;28;20265;-77
2023/08/30 13:39:48;;;;;;;3.88;0.50;;;;;;;;;;5281681;28;20017;-77
2023/08/30 13:42:21;;;;;;;2.15;0.40;;;;;;;;;;5282670;28;20044;-77
2023/08/30 13:44:52;;;;;;;3.45;0.60;;;;;;;;;;5281404;28;20016;-78
2023/08/30 13:47:23;;;;;;;2.97;0.47;;;;;;;;;;5282344;28;20073;-78
2023/08/30 13:49:55;;;;;;;4.80;0.60;;;;;;;;;;5281981;28;20009;-78
2023/08/30 13:52:26;;;;;;;5.00;0.50;;;;;;;;;;5281122;28;20299;-78
2023/08/30 13:54:57;;;;;;;3.30;0.50;;;;;;;;;;5282040;28;20027;-77
2023/08/30 13:57:28;;;;;;;3.47;0.50;;;;;;;;;;5281250;28;20024;-76
2023/08/30 14:00:03;;;;;;;2.97;0.50;;;;;;;;;;5282007;28;20008;-78
2023/08/30 14:02:34;;;;;;;3.40;0.52;;;;;;;;;;5281394;28;20423;-77
2023/08/30 14:05:06;;;;;;;3.05;0.52;;;;;;;;;;5281182;28;20055;-77
2023/08/30 14:07:37;;;;;;;3.67;0.50;;;;;;;;;;5280992;28;20068;-74
2023/08/30 14:10:11;;;;;;;2.13;0.40;;;;;;;;;;5282123;28;20070;-75
2023/08/30 14:12:42;;;;;;;2.78;0.47;;;;;;;;;;5280699;28;20028;-74
2023/08/30 14:15:13;;;;;;;2.08;0.40;;;;;;;;;;5288870;28;20426;-73
2023/08/30 14:17:44;;;;;;;3.78;0.50;;;;;;;;;;5288482;28;20012;-73
2023/08/30 14:20:15;;;;;;;6.20;0.47;;;;;;;;;;5288145;28;20023;-74
2023/08/30 14:22:47;;;;;;;2.88;0.40;;;;;;;;;;5288106;28;20283;-73
2023/08/30 14:25:18;;;;;;;4.17;0.50;;;;;;;;;;5288702;28;20024;-73
2023/08/30 14:27:49;;;;;;;3.87;0.40;;;;;;;;;;5287646;28;20297;-73
2023/08/30 14:30:20;;;;;;;3.65;0.40;;;;;;;;;;5288717;28;20312;-71
2023/08/30 14:32:52;;;;;;;2.70;0.45;;;;;;;;;;5287209;28;20383;-74
2023/08/30 14:35:24;;;;;;;5.55;0.52;;;;;;;;;;5288782;28;20020;-75
2023/08/30 14:37:55;;;;;;;2.75;0.40;;;;;;;;;;5288246;28;20070;-75
2023/08/30 14:40:26;;;;;;;2.10;0.30;;;;;;;;;;5287833;28;20016;-75
2023/08/30 14:42:57;;;;;;;2.17;0.30;;;;;;;;;;5288432;28;20263;-75
2023/08/30 14:45:29;;;;;;;1.45;0.30;;;;;;;;;;5283223;28;20306;-74
2023/08/30 14:48:00;;;;;;;3.50;0.28;;;;;;;;;;5287150;28;20349;-74
2023/08/30 14:50:31;;;;;;;4.22;0.30;;;;;;;;;;5287214;28;20017;-74
2023/08/30 14:53:02;;;;;;;3.50;0.60;;;;;;;;;;5288040;28;20077;-75
2023/08/30 14:55:33;;;;;;;7.07;0.40;;;;;;;;;;5287103;28;20414;-75
2023/08/30 14:58:05;;;;;;;2.60;0.30;;;;;;;;;;5288368;28;20020;-75
2023/08/30 15:00:36;;;;;;;2.13;0.20;;;;;;;;;;5286593;28;20028;-76
2023/08/30 15:03:07;;;;;;;2.60;0.23;;;;;;;;;;5286581;28;20036;-76
2023/08/30 15:05:39;;;;;;;1.50;0.25;;;;;;;;;;5288013;28;20297;-76
2023/08/30 15:08:10;;;;;;;3.08;0.20;;;;;;;;;;5287599;28;20041;-75
2023/08/30 15:10:41;;;;;;;2.25;0.30;;;;;;;;;;5287571;28;20044;-75